createdAt,value
2023-01-11T00:04:40.669Z,89.10
2023-01-11T00:09:39.727Z,88.98
2023-01-11T00:14:40.425Z,88.81
2023-01-11T00:19:39.765Z,89.28
2023-01-11T00:24:39.724Z,89.59
2023-01-11T00:29:39.983Z,89.64
2023-01-11T00:34:39.663Z,89.97
2023-01-11T00:39:39.778Z,89.78
2023-01-11T00:44:49.947Z,89.99
2023-01-11T00:49:39.830Z,89.90
2023-01-11T00:54:41.076Z,89.75
2023-01-11T00:59:39.937Z,89.84
2023-01-11T01:04:40.160Z,89.82
2023-01-11T01:09:39.893Z,89.94
2023-01-11T01:14:41.333Z,89.87
2023-01-11T01:19:39.654Z,90.04
2023-01-11T01:24:39.878Z,90.02
2023-01-11T01:29:40.018Z,89.98
2023-01-11T01:34:39.707Z,90.13
2023-01-11T01:39:39.882Z,90.21
2023-01-11T01:44:59.579Z,90.32
2023-01-11T01:49:40.804Z,90.36
2023-01-11T01:54:43.664Z,90.44
2023-01-11T01:59:40.953Z,90.68
2023-01-11T02:04:43.572Z,90.95
2023-01-11T02:09:44.401Z,91.13
2023-01-11T02:14:41.146Z,91.40
2023-01-11T02:19:50.715Z,91.16
2023-01-11T02:24:59.590Z,90.96
2023-01-11T02:29:49.071Z,90.93
2023-01-11T02:34:44.345Z,90.88
2023-01-11T02:39:50.211Z,91.13
2023-01-11T02:44:56.969Z,91.14
2023-01-11T02:46:01.123Z,91.14
2023-01-11T02:49:47.792Z,91.16
2023-01-11T02:54:44.000Z,91.21
2023-01-11T02:59:41.150Z,91.22
2023-01-11T03:04:39.599Z,91.31
2023-01-11T03:09:47.847Z,91.32
2023-01-11T03:14:50.079Z,91.13
2023-01-11T03:19:49.805Z,91.03
2023-01-11T03:24:45.399Z,90.92
2023-01-11T03:29:47.968Z,90.91
2023-01-11T03:34:47.288Z,91.14
2023-01-11T03:39:45.342Z,91.68
2023-01-11T03:44:43.673Z,91.85
2023-01-11T03:49:44.700Z,92.04
2023-01-11T03:54:40.733Z,92.27
2023-01-11T03:59:40.326Z,91.97
2023-01-11T04:04:39.587Z,91.62
2023-01-11T04:09:39.727Z,91.92
2023-01-11T04:14:39.703Z,91.87
2023-01-11T04:19:39.657Z,91.55
2023-01-11T04:24:39.884Z,91.62
2023-01-11T04:29:39.553Z,92.02
2023-01-11T04:34:39.659Z,91.73
2023-01-11T04:39:39.928Z,91.34
2023-01-11T04:44:39.467Z,91.76
2023-01-11T04:49:40.702Z,91.94
2023-01-11T04:54:39.910Z,91.73
2023-01-11T04:59:39.807Z,91.68
2023-01-11T05:04:39.779Z,91.56
2023-01-11T05:09:40.076Z,91.92
2023-01-11T05:14:39.536Z,92.05
2023-01-11T05:19:40.092Z,92.17
2023-01-11T05:24:39.893Z,92.16
2023-01-11T05:29:39.572Z,92.24
2023-01-11T05:34:39.866Z,92.08
2023-01-11T05:39:39.897Z,92.20
2023-01-11T05:44:49.423Z,91.98
2023-01-11T05:49:39.423Z,92.30
2023-01-11T05:54:39.715Z,92.30
2023-01-11T05:59:39.439Z,92.30
2023-01-11T06:04:39.869Z,92.49
2023-01-11T06:09:39.655Z,92.32
2023-01-11T06:14:39.581Z,92.34
2023-01-11T06:19:39.383Z,92.35
2023-01-11T06:24:39.764Z,92.50
2023-01-11T06:29:39.394Z,92.42
2023-01-11T06:34:39.503Z,92.37
2023-01-11T06:39:39.881Z,92.31
2023-01-11T06:44:39.452Z,92.35
2023-01-11T06:49:39.546Z,92.24
2023-01-11T06:54:39.567Z,92.00
2023-01-11T06:59:40.863Z,91.84
2023-01-11T07:04:39.346Z,91.69
2023-01-11T07:09:39.931Z,91.81
2023-01-11T07:14:39.727Z,91.84
2023-01-11T07:19:39.431Z,92.01
2023-01-11T07:24:39.642Z,91.86
2023-01-11T07:29:39.778Z,91.82
2023-01-11T07:34:39.439Z,91.64
2023-01-11T07:39:43.923Z,91.42
2023-01-11T07:44:39.390Z,91.38
2023-01-11T07:49:39.472Z,91.10
2023-01-11T07:54:39.815Z,90.81
2023-01-11T07:59:39.319Z,90.99
2023-01-11T08:04:39.411Z,90.87
2023-01-11T08:09:39.804Z,91.08
2023-01-11T08:14:39.389Z,90.96
2023-01-11T08:19:40.218Z,90.98
2023-01-11T08:24:39.796Z,90.50
2023-01-11T08:29:43.125Z,90.25
2023-01-11T08:34:39.601Z,89.90
2023-01-11T08:39:39.642Z,89.53
2023-01-11T08:44:39.367Z,89.41
2023-01-11T08:49:41.954Z,89.48
2023-01-11T08:54:39.886Z,88.98
2023-01-11T08:59:39.358Z,88.59
2023-01-11T09:04:40.929Z,88.43
2023-01-11T09:09:39.716Z,88.65
2023-01-11T09:14:40.688Z,88.16
2023-01-11T09:19:39.495Z,87.82
2023-01-11T09:24:39.475Z,87.51
2023-01-11T09:29:39.458Z,87.57
2023-01-11T09:34:40.800Z,87.37
2023-01-11T09:39:40.509Z,87.18
2023-01-11T09:44:48.971Z,87.22
2023-01-11T09:49:46.166Z,87.04
2023-01-11T09:54:39.449Z,87.01
2023-01-11T09:55:58.791Z,87.01
2023-01-11T09:59:47.618Z,87.02
2023-01-11T10:04:52.025Z,86.92
2023-01-11T10:18:29.801Z,87.09
2023-01-11T10:19:46.855Z,87.11
2023-01-11T10:24:43.954Z,86.73
2023-01-11T10:29:54.340Z,86.62
2023-01-11T10:34:53.178Z,86.14
2023-01-11T10:36:23.709Z,86.14
2023-01-11T10:39:57.481Z,86.08
2023-01-11T10:44:43.649Z,86.10
2023-01-11T10:49:47.390Z,86.16
2023-01-11T10:54:46.481Z,86.29
2023-01-11T10:59:59.107Z,86.11
2023-01-11T11:04:53.793Z,86.47
2023-01-11T11:09:51.528Z,86.39
2023-01-11T11:14:48.935Z,86.16
2023-01-11T11:19:41.221Z,86.33
2023-01-11T11:24:43.346Z,86.66
2023-01-11T11:29:41.647Z,86.43
2023-01-11T11:34:45.815Z,86.30
2023-01-11T11:39:39.299Z,86.14
2023-01-11T11:44:39.579Z,85.77
2023-01-11T11:49:40.008Z,85.76
2023-01-11T11:54:47.461Z,85.90
2023-01-11T11:59:46.419Z,85.48
2023-01-11T12:04:46.102Z,85.20
2023-01-11T12:09:43.436Z,85.30
2023-01-11T12:14:39.324Z,85.28
2023-01-11T12:19:41.783Z,85.12
2023-01-11T12:24:39.139Z,85.15
2023-01-11T12:29:51.055Z,85.04
2023-01-11T12:34:51.699Z,84.96
2023-01-11T12:39:48.804Z,84.45
2023-01-11T12:44:53.141Z,84.41
2023-01-11T12:49:45.538Z,84.77
2023-01-11T12:54:52.911Z,84.75
2023-01-11T12:59:58.937Z,84.50
2023-01-11T13:04:50.796Z,84.92
2023-01-11T13:09:52.091Z,84.96
2023-01-11T13:14:49.284Z,84.83
2023-01-11T13:19:47.537Z,84.61
2023-01-11T13:24:41.245Z,84.59
2023-01-11T13:29:43.348Z,84.70
2023-01-11T13:34:42.974Z,85.12
2023-01-11T13:39:44.757Z,84.99
2023-01-11T13:44:45.373Z,84.93
2023-01-11T13:49:53.062Z,85.00
2023-01-11T13:54:48.203Z,85.14
2023-01-11T13:59:45.076Z,85.43
2023-01-11T14:04:45.734Z,85.77
2023-01-11T14:09:52.992Z,85.87
2023-01-11T14:14:58.382Z,85.84
2023-01-11T14:19:46.213Z,85.93
2023-01-11T14:24:45.738Z,86.05
2023-01-11T14:29:51.375Z,86.44
2023-01-11T14:34:58.934Z,86.65
2023-01-11T14:39:58.818Z,86.62
2023-01-11T14:44:55.930Z,86.93
2023-01-11T14:49:57.663Z,87.14
2023-01-11T14:54:44.790Z,87.25
2023-01-11T14:59:39.947Z,87.57
2023-01-11T15:04:59.270Z,87.87
2023-01-11T15:09:42.706Z,87.83
2023-01-11T15:14:45.847Z,88.02
2023-01-11T15:19:41.819Z,88.04
2023-01-11T15:24:42.383Z,88.10
2023-01-11T15:29:41.957Z,87.97
2023-01-11T15:34:41.117Z,87.94
2023-01-11T15:39:04.585Z,88.01
2023-01-11T15:39:44.549Z,88.01
2023-01-11T15:44:57.067Z,87.95
2023-01-11T15:49:57.696Z,88.14
2023-01-11T15:54:58.864Z,88.09
2023-01-11T15:59:58.828Z,88.25
2023-01-11T16:04:44.605Z,88.12
2023-01-11T16:09:59.119Z,87.96
2023-01-11T16:14:58.752Z,87.88
2023-01-11T16:19:42.474Z,87.77
2023-01-11T16:24:43.943Z,87.84
2023-01-11T16:29:39.198Z,88.14
2023-01-11T16:34:40.942Z,87.90
2023-01-11T16:39:39.429Z,87.65
2023-01-11T16:44:45.464Z,87.79
2023-01-11T16:49:40.122Z,87.58
2023-01-11T16:54:39.897Z,87.49
2023-01-11T16:59:38.868Z,87.67
2023-01-11T17:04:49.727Z,87.51
2023-01-11T17:09:39.486Z,87.31
2023-01-11T17:14:51.370Z,87.31
2023-01-11T17:19:43.287Z,87.17
2023-01-11T17:24:41.036Z,87.61
2023-01-11T17:29:41.537Z,87.55
2023-01-11T17:34:39.217Z,87.37
2023-01-11T17:39:43.813Z,87.05
2023-01-11T17:44:49.781Z,86.81
2023-01-11T17:49:39.322Z,86.42
2023-01-11T17:54:39.280Z,86.20
2023-01-11T17:59:38.927Z,85.99
2023-01-11T18:04:39.497Z,85.73
2023-01-11T18:09:43.752Z,85.67
2023-01-11T18:14:45.751Z,85.50
2023-01-11T18:19:41.223Z,85.31
2023-01-11T18:24:42.397Z,85.28
2023-01-11T18:29:48.385Z,85.07
2023-01-11T18:34:39.186Z,84.98
2023-01-11T18:39:39.514Z,84.87
2023-01-11T18:44:41.105Z,84.63
2023-01-11T18:49:38.906Z,84.60
2023-01-11T18:54:39.663Z,84.56
2023-01-11T18:59:38.830Z,84.54
2023-01-11T19:04:39.100Z,84.51
2023-01-11T19:09:39.764Z,84.56
2023-01-11T19:14:39.492Z,84.46
2023-01-11T19:19:39.167Z,84.16
2023-01-11T19:24:39.119Z,83.91
2023-01-11T19:29:38.793Z,83.86
2023-01-11T19:34:39.004Z,83.82
2023-01-11T19:39:39.252Z,83.63
2023-01-11T19:44:38.844Z,83.57
2023-01-11T19:49:39.774Z,83.49
2023-01-11T19:54:40.763Z,83.36
2023-01-11T19:59:39.343Z,83.36
2023-01-11T20:04:39.325Z,83.42
2023-01-11T20:09:39.093Z,83.56
2023-01-11T20:14:39.429Z,83.58
2023-01-11T20:19:38.827Z,83.62
2023-01-11T20:24:38.864Z,83.72
2023-01-11T20:29:38.766Z,83.84
2023-01-11T20:34:38.925Z,83.99
2023-01-11T20:39:38.965Z,84.11
2023-01-11T20:44:39.085Z,84.14
2023-01-11T20:49:38.882Z,84.28
2023-01-11T20:54:39.112Z,84.37
2023-01-11T20:59:38.800Z,84.37
2023-01-11T21:04:38.880Z,84.30
2023-01-11T21:09:39.244Z,84.33
2023-01-11T21:14:38.674Z,84.41
2023-01-11T21:19:39.025Z,84.50
2023-01-11T21:24:40.061Z,84.70
2023-01-11T21:29:38.682Z,84.91
2023-01-11T21:34:38.765Z,85.08
2023-01-11T21:39:38.955Z,85.00
2023-01-11T21:44:39.088Z,84.93
2023-01-11T21:49:38.672Z,84.99
2023-01-11T21:54:38.752Z,84.98
2023-01-11T21:59:38.715Z,84.96
2023-01-11T22:04:38.691Z,84.94
2023-01-11T22:09:44.773Z,84.67
2023-01-11T22:14:38.704Z,84.75
2023-01-11T22:19:38.831Z,84.35
2023-01-11T22:24:39.108Z,84.22
2023-01-11T22:29:42.533Z,83.91
2023-01-11T22:34:39.530Z,83.68
2023-01-11T22:39:39.659Z,83.45
2023-01-11T22:44:38.717Z,83.14
2023-01-11T22:49:38.881Z,83.15
2023-01-11T22:54:38.978Z,82.76
2023-01-11T22:59:38.931Z,82.53
2023-01-11T23:04:38.677Z,82.50
2023-01-11T23:09:39.042Z,82.19
2023-01-11T23:14:38.598Z,82.07
2023-01-11T23:19:40.353Z,81.97
2023-01-11T23:24:40.043Z,82.02
2023-01-11T23:26:47.867Z,82.02
2023-01-11T23:29:38.652Z,82.24
2023-01-11T23:34:38.621Z,82.42
2023-01-11T23:39:38.823Z,83.04
2023-01-11T23:44:38.661Z,83.75
2023-01-11T23:49:39.024Z,84.66
2023-01-11T23:54:38.932Z,85.53
2023-01-11T23:59:39.618Z,86.04
